Time;durP1;ratioP1;P1;durP2;ratioP2;P2;SDS_P1;SDS_P2;PMS_P1;PMS_P2;Temp;Humidity;BMP_temperature;BMP_pressure;BME280_temperature;BME280_humidity;BME280_pressure;Samples;Min_cycle;Max_cycle;Signal;HPM_P1;HPM_P2
2021/10/08 00:01:32;;;;;;;12.13;5.75;;;;;;;4.12;59.70;101535.56;1712812;83;20160;-73
2021/10/08 00:03:58;;;;;;;;;;;;;;;4.04;60.09;101532.14;1714701;83;21548;-71
2021/10/08 00:06:24;;;;;;;10.23;5.03;;;;;;;3.99;60.36;101530.00;1698711;83;20460;-72
2021/10/08 00:08:50;;;;;;;11.20;5.62;;;;;;;3.90;60.66;101535.98;1705412;83;21022;-72
2021/10/08 00:11:17;;;;;;;11.60;5.62;;;;;;;3.86;60.74;101538.70;1695883;84;21657;-72
2021/10/08 00:13:43;;;;;;;9.70;5.47;;;;;;;3.87;60.66;101540.89;1714080;83;21135;-72
2021/10/08 00:16:10;;;;;;;10.78;5.30;;;;;;;3.84;60.86;101536.72;1692337;84;21027;-72
2021/10/08 00:18:36;;;;;;;12.50;6.12;;;;;;;3.81;61.08;101546.52;1698768;83;21113;-72
2021/10/08 00:21:04;;;;;;;12.53;6.22;;;;;;;3.80;61.45;101541.30;1680375;84;21054;-72
2021/10/08 00:23:31;;;;;;;11.57;5.22;;;;;;;3.73;61.62;101548.45;1696060;84;21552;-72
2021/10/08 00:25:57;;;;;;;11.35;5.85;;;;;;;3.73;61.66;101543.91;1699701;83;21060;-72
2021/10/08 00:28:24;;;;;;;;;;;;;;;3.65;61.97;101545.32;1695358;84;21608;-72
2021/10/08 00:30:50;;;;;;;11.40;5.37;;;;;;;3.61;62.59;101552.12;1700655;83;20180;-73
2021/10/08 00:33:16;;;;;;;19.10;7.55;;;;;;;3.50;62.95;101543.97;1700660;83;21650;-72
2021/10/08 00:35:43;;;;;;;15.10;6.30;;;;;;;3.47;63.15;101539.45;1671588;84;21031;-72
2021/10/08 00:38:10;;;;;;;17.27;7.22;;;;;;;3.46;63.20;101544.00;1710253;82;21070;-72
2021/10/08 00:40:39;;;;;;;19.48;7.65;;;;;;;3.46;63.35;101543.16;1712847;82;21031;-71
2021/10/08 00:43:05;;;;;;;18.87;7.78;;;;;;;3.43;63.40;101533.59;1727950;82;21040;-71
2021/10/08 00:45:33;;;;;;;21.33;7.42;;;;;;;3.49;63.17;101538.25;1733242;82;21012;-72
2021/10/08 00:48:08;;;;;;;18.85;8.08;;;;;;;3.58;63.01;101538.99;1736773;82;21603;-72
2021/10/08 00:50:35;;;;;;;20.95;7.65;;;;;;;3.61;62.78;101540.50;1728982;82;21341;-72
2021/10/08 00:53:02;;;;;;;17.37;7.42;;;;;;;3.61;62.73;101541.84;1714616;82;20992;-71
2021/10/08 00:55:28;;;;;;;15.38;6.92;;;;;;;3.61;62.75;101536.47;1723769;82;21004;-72
2021/10/08 00:57:55;;;;;;;17.02;8.05;;;;;;;3.61;62.75;101539.16;1731063;82;21530;-72
2021/10/08 01:00:21;;;;;;;20.25;7.83;;;;;;;3.65;62.58;101535.09;1728693;82;21374;-72
2021/10/08 01:02:47;;;;;;;16.75;7.45;;;;;;;3.72;62.38;101532.79;1729133;82;20999;-72
2021/10/08 01:05:14;;;;;;;18.98;7.60;;;;;;;3.73;62.30;101541.20;1655020;86;20975;-73
2021/10/08 01:07:41;;;;;;;15.95;6.80;;;;;;;3.72;62.31;101544.91;1719338;82;21569;-72
2021/10/08 01:10:08;;;;;;;21.07;7.42;;;;;;;3.71;62.25;101545.95;1709600;84;21637;-73
2021/10/08 01:12:35;;;;;;;19.17;7.05;;;;;;;3.69;62.23;101532.33;1713885;82;21519;-72
2021/10/08 01:15:03;;;;;;;13.22;7.30;;;;;;;3.69;62.26;101535.86;1727902;82;21099;-72
2021/10/08 01:17:30;;;;;;;15.68;6.95;;;;;;;3.69;62.35;101530.47;1721800;82;21044;-71
2021/10/08 01:20:07;;;;;;;17.95;7.50;;;;;;;3.67;62.52;101540.60;1735241;82;21087;-71
2021/10/08 01:22:36;;;;;;;14.35;7.28;;;;;;;3.65;62.68;101533.73;1727965;82;21110;-71
2021/10/08 01:25:04;;;;;;;15.78;6.75;;;;;;;3.67;62.69;101534.38;1719821;82;21600;-71
2021/10/08 01:27:30;;;;;;;16.82;6.95;;;;;;;3.65;62.94;101537.78;1722841;82;21063;-71
2021/10/08 01:29:59;;;;;;;15.30;6.60;;;;;;;3.64;63.11;101541.48;1727298;82;21055;-72
2021/10/08 01:32:30;;;;;;;13.62;7.00;;;;;;;3.67;63.19;101538.41;1737592;81;21051;-72
2021/10/08 01:34:57;;;;;;;13.90;7.08;;;;;;;3.63;63.37;101540.64;1745105;82;21028;-72
2021/10/08 01:37:23;;;;;;;13.75;7.05;;;;;;;3.57;63.55;101539.19;1744276;82;21034;-72
2021/10/08 01:39:50;;;;;;;16.48;7.62;;;;;;;3.49;63.70;101535.55;1744747;82;21541;-72
2021/10/08 01:42:17;;;;;;;13.88;6.70;;;;;;;3.45;63.87;101540.97;1742962;82;21023;-72
2021/10/08 01:44:43;;;;;;;10.98;6.90;;;;;;;3.47;63.88;101536.77;1713201;82;21070;-72
2021/10/08 01:47:11;;;;;;;14.53;6.85;;;;;;;3.51;63.77;101534.01;1719477;82;21041;-72
2021/10/08 01:49:37;;;;;;;14.63;6.42;;;;;;;3.49;63.88;101546.83;1724770;82;21095;-72
2021/10/08 01:52:05;;;;;;;12.55;6.28;;;;;;;3.44;63.95;101541.14;1740485;82;21042;-72
2021/10/08 01:54:34;;;;;;;14.98;6.35;;;;;;;3.41;64.11;101547.73;1737732;81;21094;-72
2021/10/08 01:57:00;;;;;;;13.25;7.00;;;;;;;3.35;64.46;101547.62;1747334;82;21007;-72
2021/10/08 01:59:26;;;;;;;11.75;6.58;;;;;;;3.33;64.70;101546.98;1737077;82;21047;-72
2021/10/08 02:01:54;;;;;;;14.47;7.30;;;;;;;3.33;64.76;101549.14;1733281;82;20984;-72
2021/10/08 02:04:20;;;;;;;13.38;6.62;;;;;;;3.24;65.02;101549.39;1736266;82;21062;-72
2021/10/08 02:06:47;;;;;;;10.65;6.50;;;;;;;3.16;65.32;101549.45;1673154;85;21035;-73
2021/10/08 02:09:14;;;;;;;11.43;6.40;;;;;;;3.09;65.55;101545.80;1721591;82;21545;-73
2021/10/08 02:11:41;;;;;;;12.43;7.20;;;;;;;3.08;65.51;101547.68;1665037;85;21024;-72
2021/10/08 02:14:09;;;;;;;12.55;6.67;;;;;;;3.11;65.53;101550.51;1675676;84;21071;-73
2021/10/08 02:16:36;;;;;;;10.95;6.97;;;;;;;3.03;65.66;101552.74;1695761;83;21063;-72
2021/10/08 02:19:05;;;;;;;10.90;6.05;;;;;;;2.95;65.82;101557.67;1688794;84;21063;-72
2021/10/08 02:21:31;;;;;;;12.45;7.00;;;;;;;2.89;65.96;101557.05;1697090;82;21015;-72
2021/10/08 02:23:58;;;;;;;10.72;6.70;;;;;;;2.86;66.03;101561.44;1729978;82;21015;-72
2021/10/08 02:26:25;;;;;;;13.00;7.15;;;;;;;2.81;66.09;101556.24;1733024;82;21007;-72
2021/10/08 02:28:51;;;;;;;13.43;6.25;;;;;;;2.80;66.17;101554.05;1732710;82;21046;-71
2021/10/08 02:31:18;;;;;;;15.00;7.03;;;;;;;2.85;65.99;101556.22;1718882;82;21027;-72
2021/10/08 02:33:46;;;;;;;11.65;7.00;;;;;;;2.81;66.06;101560.28;1722747;82;21129;-71
2021/10/08 02:36:12;;;;;;;12.40;6.55;;;;;;;2.74;66.31;101563.34;1676351;85;20996;-73
2021/10/08 02:38:39;;;;;;;12.13;6.47;;;;;;;2.68;66.41;101566.24;1745304;82;21003;-72
2021/10/08 02:41:06;;;;;;;11.10;6.45;;;;;;;2.65;66.57;101563.06;1730907;82;20999;-72
2021/10/08 02:43:32;;;;;;;11.88;6.17;;;;;;;2.67;66.58;101567.75;1682193;85;21546;-71
2021/10/08 02:45:59;;;;;;;11.20;5.75;;;;;;;2.67;66.60;101570.44;1745744;82;20991;-72
2021/10/08 02:48:25;;;;;;;9.53;6.15;;;;;;;2.60;66.79;101570.31;1738449;82;21114;-73
2021/10/08 02:50:54;;;;;;;12.43;6.25;;;;;;;2.54;67.00;101572.86;1728999;82;20999;-72
2021/10/08 02:53:22;;;;;;;10.15;6.70;;;;;;;2.47;67.20;101578.11;1731417;82;21051;-72
2021/10/08 02:55:49;;;;;;;10.75;7.55;;;;;;;2.46;67.24;101583.14;1733887;82;20994;-73
2021/10/08 02:58:15;;;;;;;11.03;7.40;;;;;;;2.48;67.21;101587.33;1735956;82;21569;-72
2021/10/08 03:00:42;;;;;;;11.10;6.85;;;;;;;2.44;67.31;101591.90;1742727;82;21018;-72
2021/10/08 03:03:08;;;;;;;10.88;6.90;;;;;;;2.37;67.51;101588.23;1733926;82;21082;-72
2021/10/08 03:05:35;;;;;;;12.28;7.47;;;;;;;2.34;67.61;101592.58;1742299;82;20995;-72
2021/10/08 03:08:02;;;;;;;11.57;6.97;;;;;;;2.31;67.67;101596.97;1744899;82;20999;-72
2021/10/08 03:10:29;;;;;;;11.83;7.30;;;;;;;2.29;67.81;101599.00;1732379;82;20975;-71
2021/10/08 03:12:55;;;;;;;15.83;7.45;;;;;;;2.26;67.84;101596.16;1724055;82;21014;-71
2021/10/08 03:15:22;;;;;;;12.82;8.58;;;;;;;2.27;67.77;101599.66;1728011;82;21588;-73
2021/10/08 03:17:49;;;;;;;11.70;7.35;;;;;;;2.25;67.93;101598.51;1747308;82;20964;-71
2021/10/08 03:20:15;;;;;;;10.80;7.35;;;;;;;2.21;68.01;101597.17;1739384;82;21486;-72
2021/10/08 03:22:42;;;;;;;14.28;6.67;;;;;;;2.18;68.03;101598.02;1744612;82;21045;-72
2021/10/08 03:25:09;;;;;;;13.60;7.10;;;;;;;2.21;67.89;101601.20;1670138;85;21075;-72
2021/10/08 03:27:36;;;;;;;13.03;7.30;;;;;;;2.18;67.94;101592.65;1725550;82;21439;-72
2021/10/08 03:30:05;;;;;;;18.07;8.50;;;;;;;2.09;68.17;101603.91;1677248;85;21067;-72
2021/10/08 03:32:34;;;;;;;18.50;10.93;;;;;;;2.02;68.40;101600.77;1704356;82;21558;-72
2021/10/08 03:35:00;;;;;;;16.57;8.95;;;;;;;1.99;68.48;101609.98;1711590;82;21031;-72
2021/10/08 03:40:09;;;;;;;11.97;6.35;;;;;;;1.99;68.53;101610.82;1733098;82;21134;-75
2021/10/08 03:42:35;;;;;;;11.03;7.45;;;;;;;1.99;68.51;101604.60;1739020;82;21020;-74
2021/10/08 03:45:09;;;;;;;;;;;;;;;1.93;68.67;101604.80;1726497;82;21027;-74
2021/10/08 03:47:50;;;;;;;14.38;6.92;;;;;;;1.88;68.82;101608.48;1716324;82;20144;-74
2021/10/08 03:50:00;;;;;;;10.72;6.80;;;;;;;1.81;68.97;101605.30;1731631;82;21083;-73
2021/10/08 03:52:28;;;;;;;14.60;6.97;;;;;;;1.75;69.12;101610.86;1733761;82;21003;-74
2021/10/08 03:54:54;;;;;;;11.95;7.08;;;;;;;1.75;69.21;101620.75;1720198;82;21047;-74
2021/10/08 03:57:21;;;;;;;15.10;8.90;;;;;;;1.72;69.40;101615.23;1736000;82;21019;-74
2021/10/08 03:59:47;;;;;;;17.92;8.90;;;;;;;1.68;69.63;101617.91;1724567;82;21043;-74
2021/10/08 04:02:14;;;;;;;16.25;9.73;;;;;;;1.67;69.72;101614.04;1745273;82;20984;-73
2021/10/08 04:04:42;;;;;;;15.03;7.97;;;;;;;1.65;69.86;101612.87;1724378;82;21533;-73
2021/10/08 04:07:10;;;;;;;14.05;8.05;;;;;;;1.67;69.88;101605.98;1747098;82;21526;-74
2021/10/08 04:09:36;;;;;;;15.53;8.30;;;;;;;1.66;69.96;101609.20;1745004;82;20996;-74
2021/10/08 04:12:03;;;;;;;23.18;13.88;;;;;;;1.70;69.87;101614.53;1734730;82;21102;-73
2021/10/08 04:14:31;;;;;;;22.40;12.53;;;;;;;1.70;69.98;101618.56;1729182;82;21090;-73
2021/10/08 04:17:00;;;;;;;13.80;9.08;;;;;;;1.74;69.99;101615.04;1747223;82;21028;-73
2021/10/08 04:19:27;;;;;;;17.62;10.10;;;;;;;1.74;70.15;101624.44;1741707;82;21000;-74
2021/10/08 04:21:53;;;;;;;21.23;12.15;;;;;;;1.81;70.17;101619.57;1738035;82;21007;-74
2021/10/08 04:24:20;;;;;;;13.58;9.08;;;;;;;1.86;70.13;101627.13;1744844;82;21035;-74
2021/10/08 04:26:46;;;;;;;15.20;8.93;;;;;;;1.88;70.31;101630.47;1729929;82;21007;-74
2021/10/08 04:29:13;;;;;;;12.47;7.15;;;;;;;1.91;70.40;101618.88;1740217;82;21063;-74
2021/10/08 04:31:39;;;;;;;13.70;8.25;;;;;;;2.01;70.21;101626.78;1741250;82;21011;-74
2021/10/08 04:34:05;;;;;;;14.95;7.40;;;;;;;2.07;70.18;101624.75;1744344;81;21015;-74
2021/10/08 04:36:32;;;;;;;15.50;8.65;;;;;;;2.21;69.83;101625.39;1736547;82;20994;-74
2021/10/08 04:38:59;;;;;;;;;;;;;;;2.30;69.67;101631.06;1755718;82;21108;-74
2021/10/08 04:41:26;;;;;;;12.28;7.33;;;;;;;2.33;69.64;101629.91;1742138;82;20144;-73
2021/10/08 04:43:52;;;;;;;13.18;8.83;;;;;;;2.27;69.71;101628.72;1725075;82;21431;-74
2021/10/08 04:46:18;;;;;;;13.15;7.58;;;;;;;2.33;69.67;101623.18;1753084;82;21521;-74
2021/10/08 04:48:45;;;;;;;16.37;8.28;;;;;;;2.47;69.35;101632.72;1753178;82;21089;-74
2021/10/08 04:51:12;;;;;;;15.05;8.88;;;;;;;2.54;69.16;101630.67;1744008;82;21039;-74
2021/10/08 04:53:39;;;;;;;14.47;8.25;;;;;;;2.56;69.10;101625.44;1743159;82;21636;-74
2021/10/08 04:56:05;;;;;;;17.82;8.85;;;;;;;2.60;69.04;101634.00;1725493;82;20979;-69
2021/10/08 04:58:33;;;;;;;15.83;8.20;;;;;;;2.67;68.84;101637.16;1737246;82;21059;-75
2021/10/08 05:01:02;;;;;;;13.25;8.20;;;;;;;2.78;68.56;101638.13;1728449;82;21458;-74
2021/10/08 05:03:29;;;;;;;16.23;9.55;;;;;;;2.84;68.38;101631.20;1686142;85;21140;-73
2021/10/08 05:05:56;;;;;;;18.65;9.18;;;;;;;2.87;68.40;101633.56;1723431;83;21006;-74
2021/10/08 05:08:24;;;;;;;18.02;8.68;;;;;;;2.93;68.31;101631.50;1751086;82;21128;-73
2021/10/08 05:10:52;;;;;;;16.67;9.35;;;;;;;2.98;68.20;101643.40;1752927;82;21046;-74
2021/10/08 05:13:20;;;;;;;14.18;9.15;;;;;;;3.12;67.98;101643.15;1753200;82;21545;-75
2021/10/08 05:15:47;;;;;;;18.67;8.83;;;;;;;3.29;67.57;101649.30;1753103;82;21062;-73
2021/10/08 05:18:13;;;;;;;;;;;;;;;3.41;67.49;101636.58;1736159;82;21616;-73
2021/10/08 05:20:40;;;;;;;19.23;9.70;;;;;;;3.55;67.30;101644.38;1745697;82;20133;-75
2021/10/08 05:23:06;;;;;;;14.13;8.28;;;;;;;3.62;66.90;101641.80;1752973;82;21545;-74
2021/10/08 05:25:33;;;;;;;15.03;9.43;;;;;;;3.75;66.67;101641.55;1750362;82;21027;-74
2021/10/08 05:28:01;;;;;;;16.62;8.70;;;;;;;3.90;66.42;101638.36;1746964;82;20992;-74
2021/10/08 05:30:28;;;;;;;13.80;8.30;;;;;;;4.12;65.91;101639.34;1686134;85;21095;-72
2021/10/08 05:32:54;;;;;;;;;;;;;;;4.37;65.17;101639.41;1725917;83;21466;-71
2021/10/08 05:35:22;;;;;;;16.85;8.80;;;;;;;4.60;64.58;101633.94;1723487;83;20428;-71
2021/10/08 05:37:48;;;;;;;19.23;9.50;;;;;;;4.83;64.19;101641.39;1723620;83;20995;-70
2021/10/08 05:40:15;;;;;;;16.60;9.23;;;;;;;5.11;63.43;101639.33;1751586;82;20967;-71
2021/10/08 05:42:43;;;;;;;14.90;10.28;;;;;;;5.38;62.66;101642.16;1753592;82;21502;-72
2021/10/08 05:45:09;;;;;;;14.00;9.38;;;;;;;5.64;61.29;101643.42;1726170;82;21118;-71
2021/10/08 05:47:37;;;;;;;15.98;9.10;;;;;;;5.79;60.29;101640.14;1741595;82;20983;-71
2021/10/08 05:50:04;;;;;;;;;;;;;;;5.90;59.87;101642.36;1725941;83;21113;-71
2021/10/08 05:52:30;;;;;;;19.70;10.95;;;;;;;6.09;59.51;101651.16;1723281;83;20403;-71
2021/10/08 05:54:57;;;;;;;;;;;;;;;6.25;59.01;101651.36;1699144;83;21051;-71
2021/10/08 05:57:23;;;;;;;19.42;9.80;;;;;;;6.49;58.62;101644.97;1725287;82;20168;-72
2021/10/08 05:59:50;;;;;;;15.35;9.63;;;;;;;6.66;58.19;101650.08;1684066;85;21600;-72
2021/10/08 06:02:17;;;;;;;17.40;10.48;;;;;;;6.80;57.20;101649.11;1723729;83;21010;-72
2021/10/08 06:04:44;;;;;;;18.17;10.25;;;;;;;6.89;56.83;101649.25;1723058;82;21503;-71
2021/10/08 06:07:11;;;;;;;16.97;10.23;;;;;;;7.04;56.16;101651.81;1740516;82;21015;-71
2021/10/08 06:09:38;;;;;;;16.70;8.95;;;;;;;7.07;55.65;101653.59;1752967;82;21059;-71
2021/10/08 06:12:05;;;;;;;18.20;11.63;;;;;;;7.20;55.86;101654.98;1753406;82;21023;-71
2021/10/08 06:14:33;;;;;;;16.62;10.08;;;;;;;7.44;55.10;101664.43;1753007;82;21592;-72
2021/10/08 06:17:00;;;;;;;15.95;10.32;;;;;;;7.51;54.50;101658.50;1751065;82;20996;-71
2021/10/08 06:19:27;;;;;;;17.92;11.05;;;;;;;7.68;54.35;101657.11;1750848;82;21074;-71
2021/10/08 06:21:54;;;;;;;18.52;11.97;;;;;;;7.81;53.64;101657.11;1708409;82;21534;-74
2021/10/08 06:24:20;;;;;;;31.62;18.10;;;;;;;7.94;53.29;101650.84;1752010;82;21035;-74
2021/10/08 06:26:48;;;;;;;18.67;12.60;;;;;;;8.06;52.69;101655.97;1739267;81;20971;-76
2021/10/08 06:29:14;;;;;;;14.40;9.73;;;;;;;8.11;52.80;101653.48;1748527;82;21573;-76
2021/10/08 06:31:42;;;;;;;13.85;10.90;;;;;;;8.34;52.50;101648.99;1752082;82;21046;-74
2021/10/08 06:34:09;;;;;;;14.73;10.45;;;;;;;8.64;52.00;101648.01;1747482;81;21055;-72
2021/10/08 06:36:35;;;;;;;13.03;9.50;;;;;;;8.78;51.03;101643.69;1717520;82;21051;-73
2021/10/08 06:39:02;;;;;;;;;;;;;;;8.92;50.66;101648.55;1741737;82;21078;-74
2021/10/08 06:41:28;;;;;;;15.53;11.30;;;;;;;9.11;50.13;101647.61;1727793;82;20098;-74
2021/10/08 06:43:57;;;;;;;20.12;12.37;;;;;;;9.16;50.25;101646.97;1708959;84;21143;-74
2021/10/08 06:46:25;;;;;;;12.95;9.75;;;;;;;9.38;49.70;101642.38;1709917;84;21027;-75
2021/10/08 06:48:52;;;;;;;24.10;17.00;;;;;;;9.59;49.28;101647.99;1663966;86;21574;-74
2021/10/08 06:51:19;;;;;;;17.55;10.63;;;;;;;9.79;48.52;101649.20;1726535;82;21024;-74
2021/10/08 06:53:46;;;;;;;;;;;;;;;9.91;48.01;101643.37;1739487;82;21139;-75
2021/10/08 06:56:13;;;;;;;15.23;12.60;;;;;;;10.05;47.62;101646.28;1734473;82;20132;-75
2021/10/08 06:58:42;;;;;;;21.48;11.43;;;;;;;10.05;47.48;101649.01;1708880;82;21039;-76
2021/10/08 07:01:08;;;;;;;13.93;9.18;;;;;;;10.18;46.72;101644.83;1710544;82;20992;-76
2021/10/08 07:03:36;;;;;;;12.73;9.25;;;;;;;10.25;46.67;101646.97;1710240;82;21586;-75
2021/10/08 07:06:03;;;;;;;15.00;9.20;;;;;;;10.36;46.58;101644.88;1709789;84;21079;-76
2021/10/08 07:08:29;;;;;;;13.38;9.20;;;;;;;10.44;45.82;101644.59;1731557;82;21031;-75
2021/10/08 07:10:56;;;;;;;17.05;10.95;;;;;;;10.36;45.65;101646.24;1725577;82;21447;-73
2021/10/08 07:13:23;;;;;;;;;;;;;;;10.30;45.44;101640.34;1739809;82;21072;-74
2021/10/08 07:15:51;;;;;;;16.35;9.53;;;;;;;10.23;45.45;101640.92;1734368;81;20108;-74
2021/10/08 07:18:23;;;;;;;;;;;;;;;10.27;45.69;101642.67;1739165;82;21055;-73
2021/10/08 07:20:45;;;;;;;15.15;9.30;;;;;;;10.62;44.81;101644.31;1738856;82;20128;-73
2021/10/08 07:23:12;;;;;;;15.38;9.73;;;;;;;10.80;44.80;101634.26;1718472;82;21060;-73
2021/10/08 07:25:39;;;;;;;17.15;10.68;;;;;;;11.19;44.03;101637.02;1728440;82;21087;-73
2021/10/08 07:28:05;;;;;;;13.62;9.83;;;;;;;11.47;43.21;101648.70;1738959;82;21086;-73
2021/10/08 07:30:33;;;;;;;11.73;8.48;;;;;;;11.67;42.52;101638.84;1739054;82;21406;-73
2021/10/08 07:32:59;;;;;;;18.85;14.60;;;;;;;11.84;41.87;101637.13;1738686;82;21027;-73
2021/10/08 07:35:25;;;;;;;13.28;7.67;;;;;;;12.02;41.54;101634.85;1734498;82;21023;-74
2021/10/08 07:37:52;;;;;;;;;;;;;;;12.09;40.98;101628.75;1721784;82;21018;-74
2021/10/08 07:40:18;;;;;;;11.12;7.55;;;;;;;12.16;40.94;101633.03;1734633;82;20103;-74
2021/10/08 07:42:45;;;;;;;10.08;6.83;;;;;;;12.27;40.84;101630.02;1753404;81;21015;-76
2021/10/08 07:45:11;;;;;;;10.20;6.70;;;;;;;12.54;39.94;101635.27;1742308;82;21024;-74
2021/10/08 07:47:38;;;;;;;8.90;6.15;;;;;;;12.84;39.23;101625.56;1750476;82;20983;-74
2021/10/08 07:50:06;;;;;;;9.30;5.97;;;;;;;12.93;38.82;101624.13;1752983;82;21592;-73
2021/10/08 07:52:33;;;;;;;12.60;5.58;;;;;;;13.09;38.06;101621.16;1753142;82;21046;-74
2021/10/08 07:54:59;;;;;;;;;;;;;;;13.17;37.40;101627.65;1738632;82;21564;-75
2021/10/08 07:57:26;;;;;;;18.07;7.78;;;;;;;13.30;37.34;101623.25;1743238;82;20124;-74
2021/10/08 07:59:52;;;;;;;10.38;5.97;;;;;;;13.38;37.54;101616.86;1658593;85;21637;-74
2021/10/08 08:02:19;;;;;;;;;;;;;;;13.58;36.53;101616.93;1726484;82;20987;-76
2021/10/08 08:04:45;;;;;;;9.23;5.60;;;;;;;13.77;36.35;101625.22;1723429;83;20105;-76
2021/10/08 08:07:12;;;;;;;11.57;7.05;;;;;;;13.71;35.88;101618.81;1668196;85;21786;-74
2021/10/08 08:09:38;;;;;;;;;;;;;;;13.73;35.07;101617.20;1725791;83;21644;-75
2021/10/08 08:12:05;;;;;;;7.95;4.97;;;;;;;13.63;35.39;101617.03;1748127;82;20137;-76
2021/10/08 08:14:32;;;;;;;9.50;5.28;;;;;;;13.55;35.45;101618.26;1753066;82;21059;-77
2021/10/08 08:16:58;;;;;;;;;;;;;;;13.77;35.46;101626.59;1743788;82;21042;-76
2021/10/08 08:19:24;;;;;;;9.03;6.30;;;;;;;13.90;34.47;101621.62;1724245;82;20592;-74
2021/10/08 08:21:51;;;;;;;6.35;3.87;;;;;;;13.88;34.20;101615.58;1707060;82;21067;-75
2021/10/08 08:24:17;;;;;;;6.72;3.83;;;;;;;14.02;33.77;101616.07;1753225;82;21070;-75
2021/10/08 08:26:43;;;;;;;;;;;;;;;14.18;33.89;101621.23;1755279;82;21513;-77
2021/10/08 08:29:10;;;;;;;6.80;4.28;;;;;;;14.32;33.70;101618.44;1750959;82;20182;-75
2021/10/08 08:31:36;;;;;;;;;;;;;;;14.39;34.04;101619.13;1755733;82;21050;-76
2021/10/08 08:34:02;;;;;;;6.53;4.33;;;;;;;14.60;33.54;101616.97;1753221;81;20409;-77
2021/10/08 08:36:29;;;;;;;10.45;5.05;;;;;;;14.78;33.41;101623.52;1736628;82;20987;-76
2021/10/08 08:38:59;;;;;;;8.20;4.55;;;;;;;15.03;32.66;101608.47;1724096;82;21106;-76
2021/10/08 08:41:24;;;;;;;7.60;4.25;;;;;;;15.24;32.46;101618.05;1686073;85;21071;-77
2021/10/08 08:43:51;;;;;;;8.98;4.25;;;;;;;15.32;31.99;101615.40;1724378;82;21034;-77
2021/10/08 08:46:18;;;;;;;9.15;4.70;;;;;;;15.33;31.67;101616.53;1723859;82;21066;-77
2021/10/08 08:48:44;;;;;;;;;;;;;;;15.48;31.91;101615.83;1739160;82;21106;-76
2021/10/08 08:51:10;;;;;;;7.10;4.20;;;;;;;15.65;31.23;101619.36;1752944;82;20142;-77
2021/10/08 08:53:37;;;;;;;10.10;5.03;;;;;;;15.57;31.07;101621.19;1741878;82;21568;-76
2021/10/08 08:56:04;;;;;;;7.47;4.75;;;;;;;15.68;31.32;101614.72;1745476;82;21985;-76
2021/10/08 08:58:30;;;;;;;8.10;5.22;;;;;;;15.81;31.41;101614.28;1727157;82;21666;-77
2021/10/08 09:00:58;;;;;;;9.15;6.12;;;;;;;16.00;31.53;101611.97;1739487;82;21062;-75
2021/10/08 09:03:25;;;;;;;7.22;4.60;;;;;;;16.26;30.81;101605.56;1751133;82;21117;-75
2021/10/08 09:05:51;;;;;;;8.08;5.20;;;;;;;16.23;30.83;101611.59;1744059;82;21066;-77
2021/10/08 09:08:18;;;;;;;7.58;4.75;;;;;;;16.20;30.76;101602.50;1731000;82;21043;-76
2021/10/08 09:10:47;;;;;;;9.30;5.40;;;;;;;16.38;30.82;101617.20;1748660;82;21043;-75
2021/10/08 09:13:17;;;;;;;10.88;5.25;;;;;;;16.44;30.29;101614.75;1734278;82;21035;-76
2021/10/08 09:15:51;;;;;;;10.53;5.47;;;;;;;16.55;30.63;101602.44;1723144;83;21585;-75
2021/10/08 09:18:21;;;;;;;11.35;5.10;;;;;;;16.75;30.16;101599.85;1723460;83;21054;-76
2021/10/08 09:21:15;;;;;;;3.98;2.12;;;;;;;16.85;29.99;101589.72;1723220;83;21043;-76
2021/10/08 09:23:48;;;;;;;3.22;2.22;;;;;;;16.98;28.15;101587.02;1723494;83;21082;-77
2021/10/08 09:26:25;;;;;;;8.70;2.40;;;;;;;16.74;27.33;101578.39;1751842;82;21061;-74
2021/10/08 09:29:01;;;;;;;6.30;2.47;;;;;;;16.62;27.95;101587.40;1753089;82;21082;-75
2021/10/08 09:31:38;;;;;;;6.00;1.90;;;;;;;16.77;27.46;101566.02;1753125;82;21062;-76
2021/10/08 09:34:25;;;;;;;6.42;2.37;;;;;;;16.75;26.82;101566.85;1738770;82;21121;-77
2021/10/08 09:37:04;;;;;;;11.95;3.10;;;;;;;16.54;26.93;101567.81;1722761;83;20996;-76
2021/10/08 09:39:28;;;;;;;8.35;2.72;;;;;;;16.18;27.19;101568.16;1719940;83;21043;-75
2021/10/08 09:42:00;;;;;;;7.17;2.90;;;;;;;15.86;27.60;101573.14;1722996;83;21038;-75
2021/10/08 09:44:28;;;;;;;8.73;2.90;;;;;;;15.44;27.80;101568.06;1722903;82;21058;-76
2021/10/08 09:47:18;;;;;;;7.17;2.95;;;;;;;14.92;28.42;101569.96;1723344;83;21054;-75
2021/10/08 09:49:47;;;;;;;10.40;2.58;;;;;;;14.56;29.55;101567.05;1690021;83;21206;-76
2021/10/08 09:52:26;;;;;;;7.62;2.87;;;;;;;14.23;29.81;101566.01;1726257;82;21050;-76
2021/10/08 09:54:58;;;;;;;8.00;2.60;;;;;;;14.04;30.06;101576.09;1753173;82;21043;-76
2021/10/08 09:57:25;;;;;;;6.42;2.70;;;;;;;13.71;30.03;101567.38;1753244;82;21490;-75
2021/10/08 09:59:53;;;;;;;6.67;2.92;;;;;;;13.33;30.46;101568.89;1743970;82;21095;-74
2021/10/08 10:02:21;;;;;;;4.90;2.50;;;;;;;13.04;31.08;101563.09;1723447;82;21482;-74
2021/10/08 10:04:55;;;;;;;6.30;3.22;;;;;;;12.88;31.63;101567.45;1724263;82;21106;-76
2021/10/08 10:07:23;;;;;;;7.05;3.40;;;;;;;12.70;31.66;101573.08;1723467;82;21011;-76
2021/10/08 10:09:50;;;;;;;7.50;3.17;;;;;;;12.51;31.92;101563.90;1723303;83;21086;-73
2021/10/08 10:12:20;;;;;;;7.97;3.45;;;;;;;12.30;32.32;101567.56;1737631;82;21063;-74
2021/10/08 10:14:49;;;;;;;8.65;3.30;;;;;;;12.13;32.93;101574.81;1752957;82;21075;-76
2021/10/08 10:17:17;;;;;;;7.37;2.80;;;;;;;12.04;33.14;101565.33;1753194;82;20992;-73
2021/10/08 10:19:45;;;;;;;7.10;3.20;;;;;;;12.02;33.42;101559.79;1753111;82;21062;-74
2021/10/08 10:22:17;;;;;;;5.53;2.77;;;;;;;12.02;33.67;101561.16;1734309;82;20979;-73
2021/10/08 10:24:46;;;;;;;8.10;3.58;;;;;;;12.05;33.81;101558.78;1753128;82;21557;-73
2021/10/08 10:27:16;;;;;;;8.90;3.30;;;;;;;12.08;33.19;101552.84;1747673;80;21459;-73
2021/10/08 10:29:45;;;;;;;8.08;2.90;;;;;;;12.05;33.32;101550.59;1724922;82;21687;-74
2021/10/08 10:32:12;;;;;;;9.35;2.77;;;;;;;12.03;33.24;101545.08;1744799;82;21007;-73
2021/10/08 10:34:39;;;;;;;6.92;2.60;;;;;;;12.01;33.10;101543.14;1718589;81;21034;-74
2021/10/08 10:37:07;;;;;;;6.85;2.77;;;;;;;11.97;32.77;101549.05;1749583;82;21007;-73
2021/10/08 10:39:34;;;;;;;4.62;2.37;;;;;;;11.91;32.91;101540.98;1724226;82;21129;-73
2021/10/08 10:42:06;;;;;;;;;;;;;;;11.89;33.07;101541.23;1738180;82;21549;-74
2021/10/08 10:44:37;;;;;;;6.67;2.60;;;;;;;11.88;32.88;101541.45;1725159;82;20410;-78
2021/10/08 10:50:38;;;;;;;8.60;2.83;;;;;;;11.84;33.51;101547.09;1773490;78;23420;-74
2021/10/08 10:52:55;;;;;;;8.80;2.90;;;;;;;11.80;33.30;101541.80;1668130;85;21402;-73
2021/10/08 10:55:24;;;;;;;7.08;3.50;;;;;;;11.79;33.37;101538.80;1700726;84;21087;-71
2021/10/08 10:57:55;;;;;;;13.65;5.25;;;;;;;11.80;33.43;101537.17;1680824;84;21082;-73
2021/10/08 11:00:25;;;;;;;11.57;6.25;;;;;;;11.84;33.46;101545.19;1685239;84;21114;-73
2021/10/08 11:03:16;;;;;;;11.08;5.33;;;;;;;11.87;33.56;101541.98;1687914;84;21066;-72
2021/10/08 11:06:08;;;;;;;8.73;4.37;;;;;;;11.92;33.87;101533.09;1686831;84;21014;-72
2021/10/08 11:09:06;;;;;;;7.67;3.65;;;;;;;11.97;33.58;101529.14;1610090;87;21059;-71
2021/10/08 11:11:33;;;;;;;8.80;4.03;;;;;;;11.96;34.20;101546.05;1670203;84;21553;-74
2021/10/08 11:14:28;;;;;;;8.03;3.58;;;;;;;11.96;34.07;101532.92;1668498;84;21137;-74
2021/10/08 11:16:59;;;;;;;6.03;3.75;;;;;;;11.94;34.42;101526.86;1695676;84;21010;-74
2021/10/08 11:19:39;;;;;;;11.57;4.47;;;;;;;11.94;34.34;101521.40;1691362;84;21122;-72
2021/10/08 11:22:05;;;;;;;8.58;4.10;;;;;;;11.93;34.23;101523.85;1706319;84;20967;-74
2021/10/08 11:24:32;;;;;;;;;;;;;;;11.85;34.43;101516.84;1701917;84;21703;-74
2021/10/08 11:27:00;;;;;;;9.73;3.70;;;;;;;11.88;34.60;101519.62;1699412;84;20182;-73
2021/10/08 11:29:34;;;;;;;7.25;3.92;;;;;;;11.84;34.15;101519.27;1682505;84;21038;-74
2021/10/08 11:32:10;;;;;;;6.92;2.80;;;;;;;11.85;34.40;101521.47;1678917;85;21620;-74
2021/10/08 11:34:49;;;;;;;9.28;3.83;;;;;;;11.88;33.91;101512.80;1702977;84;21098;-76
2021/10/08 11:37:16;;;;;;;7.67;3.27;;;;;;;11.91;33.97;101517.78;1695172;84;21066;-73
2021/10/08 11:39:45;;;;;;;9.03;3.98;;;;;;;11.94;34.15;101508.59;1678648;85;21059;-73